Time;durP1;ratioP1;P1;durP2;ratioP2;P2;SDS_P1;SDS_P2;PMS_P1;PMS_P2;Temp;Humidity;BMP_temperature;BMP_pressure;BME280_temperature;BME280_humidity;BME280_pressure;Samples;Min_cycle;Max_cycle;Signal;HPM_P1;HPM_P2
2023/12/20 00:00:06;;;;;;;0.30;0.30;;;;;;;4.84;100.00;92985.50;2108920;28;20024;-78
2023/12/20 00:01:07;;;;;;;0.30;0.30;;;;;;;4.80;100.00;92982.88;2122119;27;20118;-78
2023/12/20 00:02:08;;;;;;;0.20;0.20;;;;;;;4.68;100.00;92988.56;2122153;27;20027;-80
2023/12/20 00:03:09;;;;;;;0.20;0.20;;;;;;;4.72;100.00;92981.38;2116911;27;20023;-77
2023/12/20 00:04:10;;;;;;;0.20;0.20;;;;;;;4.74;100.00;92990.44;2115232;28;20065;-78
2023/12/20 00:05:11;;;;;;;0.28;0.28;;;;;;;4.72;100.00;92992.69;2123488;27;20023;-77
2023/12/20 00:06:12;;;;;;;0.20;0.20;;;;;;;4.76;100.00;92996.09;2124588;27;20023;-78
2023/12/20 00:07:13;;;;;;;0.20;0.20;;;;;;;4.80;100.00;92998.75;2122714;27;20026;-78
2023/12/20 00:08:14;;;;;;;0.20;0.20;;;;;;;4.76;100.00;92998.75;2115223;28;20700;-79
2023/12/20 00:09:15;;;;;;;0.30;0.30;;;;;;;4.71;100.00;92995.75;2122733;27;20073;-77
2023/12/20 00:10:16;;;;;;;0.20;0.20;;;;;;;4.71;100.00;92995.75;2124243;27;20031;-77
2023/12/20 00:11:17;;;;;;;0.20;0.20;;;;;;;4.78;100.00;92985.91;2114526;28;20389;-77
2023/12/20 00:12:18;;;;;;;0.22;0.22;;;;;;;4.81;100.00;92984.38;2106936;28;20049;-78
2023/12/20 00:13:19;;;;;;;0.32;0.28;;;;;;;4.85;100.00;92974.53;2115101;28;20068;-77
2023/12/20 00:14:20;;;;;;;0.28;0.20;;;;;;;4.91;100.00;92975.63;2111802;28;20055;-78
2023/12/20 00:15:21;;;;;;;0.22;0.22;;;;;;;4.83;100.00;92976.03;2101841;28;20035;-78
2023/12/20 00:16:22;;;;;;;0.30;0.30;;;;;;;4.82;100.00;92977.94;2115434;27;20031;-78
2023/12/20 00:17:23;;;;;;;0.20;0.20;;;;;;;4.76;100.00;92959.03;2108973;27;20059;-79
2023/12/20 00:18:24;;;;;;;0.20;0.20;;;;;;;4.65;100.00;92968.88;2106898;27;20032;-79
2023/12/20 00:19:25;;;;;;;0.20;0.20;;;;;;;4.70;100.00;92965.88;2109722;27;20496;-79
2023/12/20 00:20:27;;;;;;;0.20;0.20;;;;;;;4.78;100.00;92962.06;2122653;27;20080;-77
2023/12/20 00:21:28;;;;;;;0.17;0.17;;;;;;;4.86;100.00;92954.09;2108227;28;20473;-78
2023/12/20 00:22:29;;;;;;;0.22;0.22;;;;;;;4.95;100.00;92960.47;2106510;28;20027;-77
2023/12/20 00:23:30;;;;;;;0.20;0.20;;;;;;;4.93;100.00;92959.38;2111169;28;20020;-78
2023/12/20 00:24:31;;;;;;;0.25;0.25;;;;;;;4.91;100.00;92957.09;2114786;28;20050;-77
2023/12/20 00:25:31;;;;;;;0.20;0.20;;;;;;;4.83;100.00;92958.28;2116241;27;20024;-78
2023/12/20 00:26:34;;;;;;;0.20;0.20;;;;;;;4.90;100.00;92960.88;2117890;27;20475;-79
2023/12/20 00:27:35;;;;;;;0.20;0.20;;;;;;;4.81;100.00;92960.53;2122535;27;20027;-78
2023/12/20 00:28:36;;;;;;;0.30;0.30;;;;;;;4.75;100.00;92956.78;2123686;27;20391;-79
2023/12/20 00:29:37;;;;;;;0.30;0.30;;;;;;;4.97;100.00;92947.63;2111096;28;20090;-78
2023/12/20 00:30:38;;;;;;;0.30;0.30;;;;;;;4.99;100.00;92958.59;2117077;27;20030;-78
2023/12/20 00:31:39;;;;;;;0.32;0.30;;;;;;;5.03;100.00;92955.94;2115572;28;20023;-79
2023/12/20 00:32:46;;;;;;;0.30;0.30;;;;;;;5.00;100.00;92956.69;2106449;28;20027;-78
2023/12/20 00:33:47;;;;;;;0.32;0.30;;;;;;;4.96;100.00;92958.59;2111176;27;20524;-78
2023/12/20 00:34:48;;;;;;;0.30;0.30;;;;;;;4.83;100.00;92952.19;2110942;28;20028;-78
2023/12/20 00:35:48;;;;;;;0.20;0.20;;;;;;;4.76;100.00;92966.22;2110104;28;20393;-79
2023/12/20 00:36:49;;;;;;;0.30;0.30;;;;;;;4.80;100.00;92959.03;2118892;27;20015;-78
2023/12/20 00:37:50;;;;;;;0.45;0.20;;;;;;;4.77;100.00;92951.84;2114852;28;20065;-76
2023/12/20 00:38:51;;;;;;;0.30;0.20;;;;;;;4.69;100.00;92953.00;2106466;28;20055;-78
2023/12/20 00:40:06;;;;;;;1.90;0.30;;;;;;;4.79;100.00;92954.88;2102462;28;20027;-79
2023/12/20 00:41:07;;;;;;;0.30;0.30;;;;;;;4.92;100.00;92948.03;2114915;28;20102;-78
2023/12/20 00:42:09;;;;;;;0.20;0.20;;;;;;;5.00;100.00;92952.16;2106829;28;20169;-77
2023/12/20 00:43:10;;;;;;;0.30;0.30;;;;;;;5.10;100.00;92949.88;2121549;27;20512;-78
2023/12/20 00:44:11;;;;;;;0.55;0.30;;;;;;;5.18;100.00;92951.31;2123050;27;20055;-77
2023/12/20 00:45:11;;;;;;;0.30;0.30;;;;;;;4.98;100.00;92954.44;2122999;27;20068;-77
2023/12/20 00:46:12;;;;;;;2.05;0.50;;;;;;;4.98;100.00;92940.44;2110954;28;20017;-78
2023/12/20 00:47:13;;;;;;;0.30;0.30;;;;;;;4.99;100.00;92947.25;2092779;28;20072;-79
2023/12/20 00:48:14;;;;;;;0.57;0.40;;;;;;;5.20;100.00;92949.06;2113718;28;20023;-77
2023/12/20 00:49:15;;;;;;;0.30;0.30;;;;;;;5.13;100.00;92946.44;2124159;27;20053;-77
2023/12/20 00:50:16;;;;;;;0.63;0.40;;;;;;;5.23;100.00;92943.75;2123844;27;20045;-79
2023/12/20 00:51:17;;;;;;;0.40;0.30;;;;;;;5.12;100.00;92944.91;2119326;27;20407;-78
2023/12/20 00:52:18;;;;;;;0.40;0.40;;;;;;;5.28;100.00;92948.63;2114848;28;20027;-79
2023/12/20 00:53:19;;;;;;;0.30;0.30;;;;;;;5.20;100.00;92946.41;2119047;27;20028;-78
2023/12/20 00:54:20;;;;;;;0.57;0.32;;;;;;;5.34;100.00;92942.94;2119642;27;20019;-79
2023/12/20 00:55:21;;;;;;;0.30;0.30;;;;;;;5.35;100.00;92945.19;2114473;28;20020;-77
2023/12/20 00:56:22;;;;;;;0.30;0.30;;;;;;;5.23;100.00;92938.44;2114938;28;20027;-78
2023/12/20 00:57:23;;;;;;;1.20;0.40;;;;;;;5.15;100.00;92939.63;2114664;28;20069;-77
2023/12/20 00:58:24;;;;;;;0.20;0.20;;;;;;;5.28;100.00;92947.88;2114675;28;20042;-78
2023/12/20 00:59:25;;;;;;;0.30;0.30;;;;;;;5.23;100.00;92941.09;2111874;28;20084;-77
2023/12/20 01:00:31;;;;;;;0.20;0.20;;;;;;;5.24;100.00;92950.56;2115256;28;20027;-79
2023/12/20 01:01:33;;;;;;;0.30;0.30;;;;;;;5.39;100.00;92937.22;2116314;27;20476;-77
2023/12/20 01:02:34;;;;;;;0.20;0.20;;;;;;;5.36;100.00;92938.00;2106093;28;20043;-77
2023/12/20 01:03:34;;;;;;;0.30;0.30;;;;;;;5.16;100.00;92945.66;2111632;28;20039;-79
2023/12/20 01:04:35;;;;;;;0.43;0.30;;;;;;;5.11;100.00;92941.53;2117022;27;20048;-76
2023/12/20 01:05:36;;;;;;;0.93;0.47;;;;;;;5.05;100.00;92941.16;2034197;27;20024;-77
2023/12/20 01:06:37;;;;;;;0.50;0.40;;;;;;;5.18;100.00;92944.16;2018710;28;20027;-78
2023/12/20 01:07:38;;;;;;;0.93;0.73;;;;;;;5.19;100.00;92937.72;2064214;28;20039;-77
2023/12/20 01:08:39;;;;;;;0.45;0.43;;;;;;;5.07;100.00;92943.44;2100048;27;20031;-76
2023/12/20 01:09:40;;;;;;;0.82;0.40;;;;;;;4.99;100.00;92940.03;2055740;27;20034;-77
2023/12/20 01:10:41;;;;;;;1.02;0.52;;;;;;;5.07;100.00;92937.38;2011824;27;22890;-77
2023/12/20 01:11:42;;;;;;;0.30;0.30;;;;;;;5.01;100.00;92932.47;2021840;27;23075;-77
2023/12/20 01:12:44;;;;;;;0.38;0.32;;;;;;;4.95;100.00;92941.19;2032375;27;20035;-77
2023/12/20 01:13:45;;;;;;;0.32;0.32;;;;;;;5.07;100.00;92947.97;2033454;27;20031;-77
2023/12/20 01:14:46;;;;;;;0.30;0.30;;;;;;;5.12;100.00;92939.63;2041674;27;20084;-77
2023/12/20 01:15:47;;;;;;;0.85;0.30;;;;;;;5.11;100.00;92941.53;2053630;27;23298;-78
2023/12/20 01:16:48;;;;;;;0.38;0.38;;;;;;;4.98;100.00;92945.72;2053546;27;20035;-77
2023/12/20 01:17:49;;;;;;;0.35;0.35;;;;;;;5.08;100.00;92936.97;2048666;28;20028;-77
2023/12/20 01:18:50;;;;;;;0.40;0.40;;;;;;;5.21;100.00;92937.31;2060669;27;20429;-76
2023/12/20 01:19:51;;;;;;;0.30;0.30;;;;;;;5.19;100.00;92936.97;2064704;27;20027;-76
2023/12/20 01:20:52;;;;;;;0.30;0.30;;;;;;;5.29;100.00;92944.09;2063779;27;20468;-77
2023/12/20 01:21:53;;;;;;;0.30;0.30;;;;;;;5.43;100.00;92944.00;2077328;27;20058;-77
2023/12/20 01:22:54;;;;;;;0.22;0.22;;;;;;;5.34;100.00;92935.72;2078107;28;20027;-77
2023/12/20 01:23:55;;;;;;;0.30;0.30;;;;;;;5.31;100.00;92941.78;2077209;28;20093;-78
2023/12/20 01:24:56;;;;;;;0.20;0.20;;;;;;;5.21;100.00;92943.38;2095812;27;20163;-78
2023/12/20 01:25:59;;;;;;;0.32;0.30;;;;;;;5.25;100.00;92938.06;2093769;28;20035;-77
2023/12/20 01:27:00;;;;;;;0.25;0.25;;;;;;;5.15;100.00;92946.81;2102265;27;20026;-77
2023/12/20 01:28:03;;;;;;;0.47;0.30;;;;;;;5.10;100.00;92944.56;2123189;27;20026;-77
2023/12/20 01:29:03;;;;;;;0.30;0.30;;;;;;;5.05;100.00;92935.88;2122963;27;20476;-76
2023/12/20 01:30:05;;;;;;;0.30;0.30;;;;;;;4.90;100.00;92936.31;2115986;27;20111;-77
2023/12/20 01:31:06;;;;;;;0.52;0.40;;;;;;;4.93;100.00;92938.94;2118840;27;20035;-78
2023/12/20 01:32:07;;;;;;;0.20;0.20;;;;;;;5.11;100.00;92935.47;2114693;28;20027;-77
2023/12/20 01:33:08;;;;;;;0.40;0.20;;;;;;;5.00;100.00;92944.22;2106128;28;20719;-79
2023/12/20 01:34:09;;;;;;;0.20;0.20;;;;;;;4.97;100.00;92949.53;2106148;28;20024;-77
2023/12/20 01:35:10;;;;;;;0.20;0.20;;;;;;;5.08;100.00;92947.56;2105888;28;20130;-77
2023/12/20 01:36:11;;;;;;;0.30;0.30;;;;;;;5.14;100.00;92935.47;2114534;28;20092;-79
2023/12/20 01:37:12;;;;;;;0.45;0.30;;;;;;;5.09;100.00;92951.72;2114536;28;20106;-78
2023/12/20 01:38:13;;;;;;;0.30;0.30;;;;;;;5.07;100.00;92948.72;2122471;27;20030;-77
2023/12/20 01:39:23;;;;;;;0.32;0.32;;;;;;;4.97;100.00;92944.22;2121205;27;20434;-77
2023/12/20 01:40:24;;;;;;;0.47;0.40;;;;;;;4.91;100.00;92951.78;2107223;28;20113;-77
2023/12/20 01:41:25;;;;;;;0.35;0.30;;;;;;;4.86;100.00;92956.75;2118008;27;20421;-78
2023/12/20 01:42:26;;;;;;;0.28;0.28;;;;;;;4.85;100.00;92950.69;2122880;27;20023;-77
2023/12/20 01:43:27;;;;;;;0.68;0.30;;;;;;;4.87;100.00;92953.69;2120071;27;20026;-78
2023/12/20 01:44:28;;;;;;;0.60;0.35;;;;;;;4.78;100.00;92964.72;2106185;28;20016;-79
2023/12/20 01:45:29;;;;;;;0.20;0.20;;;;;;;5.10;100.00;92965.75;2122307;27;20042;-77
2023/12/20 01:46:30;;;;;;;0.20;0.20;;;;;;;5.15;100.00;92960.81;2106124;28;20031;-77
2023/12/20 01:47:31;;;;;;;0.20;0.20;;;;;;;5.07;100.00;92961.22;2108647;28;20051;-78
2023/12/20 01:48:32;;;;;;;0.20;0.20;;;;;;;5.00;100.00;92965.41;2115202;28;20028;-77
2023/12/20 01:49:33;;;;;;;0.20;0.20;;;;;;;4.98;100.00;92972.97;2114730;28;20410;-77
2023/12/20 01:50:36;;;;;;;0.20;0.20;;;;;;;5.00;100.00;92975.22;2113453;27;20054;-77
2023/12/20 01:51:41;;;;;;;0.20;0.20;;;;;;;5.07;100.00;92972.56;2116633;27;20077;-77
2023/12/20 01:52:43;;;;;;;0.20;0.20;;;;;;;5.03;100.00;92969.94;2116460;27;20486;-78
2023/12/20 01:53:44;;;;;;;0.20;0.20;;;;;;;4.98;100.00;92966.94;2117782;27;20026;-78
2023/12/20 01:54:47;;;;;;;0.20;0.20;;;;;;;5.02;100.00;92979.00;2107257;28;20138;-78
2023/12/20 01:55:50;;;;;;;0.20;0.20;;;;;;;4.94;100.00;92977.53;2106600;27;20056;-78
2023/12/20 01:56:51;;;;;;;0.30;0.30;;;;;;;5.11;100.00;92980.50;2115987;27;20503;-76
2023/12/20 01:57:52;;;;;;;0.20;0.20;;;;;;;5.03;100.00;92975.22;2121001;27;20023;-77
2023/12/20 01:58:54;;;;;;;0.10;0.10;;;;;;;5.08;100.00;92983.91;2113760;28;20438;-80
2023/12/20 01:59:56;;;;;;;0.22;0.10;;;;;;;5.04;100.00;92978.63;2113873;27;20023;-77
2023/12/20 02:00:58;;;;;;;0.20;0.20;;;;;;;5.02;100.00;92967.66;2114130;28;20094;-78
2023/12/20 02:01:59;;;;;;;0.20;0.20;;;;;;;5.15;100.00;92975.97;2114866;27;20044;-78
2023/12/20 02:03:02;;;;;;;0.30;0.30;;;;;;;5.06;100.00;92971.06;2117118;27;20102;-77
2023/12/20 02:04:03;;;;;;;0.20;0.20;;;;;;;5.27;100.00;92975.53;2030805;28;20032;-78
2023/12/20 02:05:06;;;;;;;0.73;0.30;;;;;;;4.96;100.00;92980.56;2020952;27;21200;-80
2023/12/20 02:06:08;;;;;;;0.20;0.20;;;;;;;5.14;100.00;92971.81;2017111;27;20081;-79
2023/12/20 02:07:09;;;;;;;0.20;0.20;;;;;;;5.08;100.00;92974.06;2028803;27;20035;-78
2023/12/20 02:08:10;;;;;;;0.30;0.30;;;;;;;4.98;100.00;92972.97;2030368;27;20037;-78
2023/12/20 02:09:11;;;;;;;0.57;0.20;;;;;;;4.90;100.00;92983.97;2035070;27;20153;-78
2023/12/20 02:10:13;;;;;;;0.22;0.20;;;;;;;4.94;100.00;92976.78;2035817;27;20038;-78
2023/12/20 02:11:13;;;;;;;0.20;0.20;;;;;;;4.91;100.00;92983.56;2031331;28;20165;-78
2023/12/20 02:12:14;;;;;;;0.40;0.40;;;;;;;4.82;100.00;92980.56;2081406;28;21690;-79
2023/12/20 02:13:15;;;;;;;0.20;0.20;;;;;;;4.73;100.00;92977.56;2106310;27;20038;-78
2023/12/20 02:14:16;;;;;;;0.32;0.30;;;;;;;4.83;100.00;92973.38;2029705;27;20034;-77
2023/12/20 02:15:17;;;;;;;0.20;0.20;;;;;;;4.78;100.00;92961.28;2014126;28;20055;-77
2023/12/20 02:16:18;;;;;;;0.20;0.20;;;;;;;4.87;100.00;92963.53;2018356;28;20122;-76
2023/12/20 02:17:20;;;;;;;0.35;0.30;;;;;;;4.72;100.00;92957.53;2027525;27;23510;-78
2023/12/20 02:18:21;;;;;;;0.57;0.20;;;;;;;4.73;100.00;92959.03;2037823;27;20033;-77
2023/12/20 02:19:22;;;;;;;0.10;0.10;;;;;;;5.02;100.00;92963.13;2036944;27;20066;-79
2023/12/20 02:20:23;;;;;;;0.20;0.20;;;;;;;4.95;100.00;92951.78;2042127;27;20487;-78
2023/12/20 02:21:34;;;;;;;0.20;0.20;;;;;;;5.19;100.00;92956.25;2045216;27;21782;-79
2023/12/20 02:22:35;;;;;;;0.93;0.20;;;;;;;4.95;100.00;92957.84;2052153;28;20881;-78
2023/12/20 02:23:36;;;;;;;2.47;0.20;;;;;;;4.76;100.00;92951.09;2055769;28;20122;-79
2023/12/20 02:24:38;;;;;;;0.30;0.20;;;;;;;4.64;100.00;92951.50;2057769;28;20023;-78
2023/12/20 02:25:39;;;;;;;0.20;0.20;;;;;;;4.75;100.00;92948.84;2056141;27;20036;-79
2023/12/20 02:26:41;;;;;;;0.20;0.20;;;;;;;4.65;100.00;92958.28;2056058;28;20635;-79
2023/12/20 02:27:42;;;;;;;0.70;0.30;;;;;;;4.68;100.00;92962.06;2071516;27;21148;-79
2023/12/20 02:28:43;;;;;;;0.10;0.10;;;;;;;4.50;100.00;92962.88;2082932;27;20026;-78
2023/12/20 02:29:47;;;;;;;0.20;0.20;;;;;;;4.42;100.00;92966.66;2084126;27;20113;-78
2023/12/20 02:30:49;;;;;;;0.20;0.20;;;;;;;4.40;100.00;92960.25;2081951;28;20036;-78
2023/12/20 02:31:50;;;;;;;0.20;0.20;;;;;;;4.34;100.00;92957.19;2074389;28;20031;-76
2023/12/20 02:32:52;;;;;;;0.45;0.20;;;;;;;4.42;100.00;92963.25;2095986;27;20024;-76
2023/12/20 02:33:53;;;;;;;0.80;0.52;;;;;;;4.60;100.00;92963.22;2109899;27;20302;-79
2023/12/20 02:34:55;;;;;;;0.20;0.20;;;;;;;4.59;100.00;92969.66;2117188;27;20079;-75
2023/12/20 02:35:56;;;;;;;0.20;0.20;;;;;;;4.68;100.00;92964.72;2125763;27;20380;-81
2023/12/20 02:36:57;;;;;;;0.20;0.20;;;;;;;4.64;100.00;92964.72;2113886;28;20019;-80
2023/12/20 02:37:58;;;;;;;0.17;0.17;;;;;;;4.61;100.00;92970.81;2105647;28;20020;-76
2023/12/20 02:38:59;;;;;;;0.20;0.20;;;;;;;4.47;100.00;92971.56;2097216;28;20028;-77
2023/12/20 02:40:00;;;;;;;0.30;0.20;;;;;;;4.66;100.00;92975.72;2113600;28;20023;-79
2023/12/20 02:41:01;;;;;;;0.30;0.20;;;;;;;4.67;100.00;92974.56;2122586;27;20069;-77
2023/12/20 02:42:02;;;;;;;0.60;0.28;;;;;;;4.67;100.00;92974.56;2122013;28;20045;-78
2023/12/20 02:43:03;;;;;;;0.55;0.40;;;;;;;4.62;100.00;92977.59;2109946;28;20077;-77
2023/12/20 02:44:04;;;;;;;1.00;0.25;;;;;;;4.61;100.00;92970.81;2104632;28;20031;-78
2023/12/20 02:45:06;;;;;;;0.15;0.15;;;;;;;4.70;100.00;92965.88;2105709;28;20020;-77
2023/12/20 02:46:08;;;;;;;0.20;0.20;;;;;;;4.74;100.00;92969.25;2106276;28;20032;-79
2023/12/20 02:47:09;;;;;;;0.20;0.20;;;;;;;4.63;100.00;92968.53;2118307;28;20395;-76
2023/12/20 02:48:10;;;;;;;0.20;0.20;;;;;;;4.55;100.00;92967.75;2110147;28;20054;-78
2023/12/20 02:49:10;;;;;;;0.20;0.20;;;;;;;4.61;100.00;92964.72;2120125;28;20050;-76
2023/12/20 02:50:12;;;;;;;0.20;0.20;;;;;;;4.61;100.00;92964.72;2123008;27;20030;-78
2023/12/20 02:51:12;;;;;;;0.20;0.20;;;;;;;4.46;100.00;92956.81;2120544;28;20511;-79
2023/12/20 02:52:13;;;;;;;0.30;0.20;;;;;;;4.58;100.00;92950.38;2126345;27;20024;-78
2023/12/20 02:53:15;;;;;;;0.20;0.20;;;;;;;4.47;100.00;92949.63;2123982;27;20027;-78
2023/12/20 02:54:16;;;;;;;0.13;0.13;;;;;;;4.40;100.00;92958.34;2115393;27;20463;-77
2023/12/20 02:55:17;;;;;;;0.10;0.10;;;;;;;4.47;100.00;92957.56;2113557;28;20020;-79
2023/12/20 02:56:17;;;;;;;0.20;0.20;;;;;;;4.59;100.00;92959.81;2108604;28;20544;-76
2023/12/20 02:57:18;;;;;;;0.20;0.20;;;;;;;4.50;100.00;92956.81;2117458;28;20027;-80
2023/12/20 02:58:19;;;;;;;0.17;0.17;;;;;;;4.66;100.00;92959.06;2114567;28;20032;-77
2023/12/20 02:59:20;;;;;;;0.20;0.20;;;;;;;4.52;100.00;92955.31;2114557;28;20015;-79
2023/12/20 03:00:21;;;;;;;0.20;0.20;;;;;;;4.45;100.00;92960.59;2119804;28;20026;-76
2023/12/20 03:01:22;;;;;;;0.20;0.20;;;;;;;4.53;100.00;92964.75;2116309;28;20428;-76
2023/12/20 03:02:23;;;;;;;0.20;0.20;;;;;;;4.59;100.00;92961.72;2117139;28;20802;-77
2023/12/20 03:03:24;;;;;;;0.20;0.20;;;;;;;4.65;100.00;92954.91;2120919;28;20065;-77
2023/12/20 03:04:25;;;;;;;0.20;0.20;;;;;;;4.50;100.00;92964.75;2121591;28;20042;-78
2023/12/20 03:05:26;;;;;;;1.73;0.50;;;;;;;4.57;100.00;92969.31;2115208;28;20027;-77
2023/12/20 03:06:27;;;;;;;0.20;0.20;;;;;;;4.59;100.00;92970.41;2113707;28;20479;-78
2023/12/20 03:07:28;;;;;;;0.22;0.22;;;;;;;4.42;100.00;92964.00;2113202;28;20019;-77
2023/12/20 03:08:29;;;;;;;0.20;0.20;;;;;;;4.29;100.00;92968.94;2105546;28;20031;-76
2023/12/20 03:09:30;;;;;;;0.28;0.20;;;;;;;4.30;100.00;92969.69;2113821;28;20500;-79
2023/12/20 03:10:31;;;;;;;0.30;0.20;;;;;;;4.25;100.00;92962.13;2105506;28;20390;-79
2023/12/20 03:11:32;;;;;;;0.20;0.20;;;;;;;4.37;100.00;92976.88;2105484;28;20050;-76
2023/12/20 03:12:33;;;;;;;0.10;0.10;;;;;;;4.36;100.00;92968.19;2113663;28;20024;-76
2023/12/20 03:13:34;;;;;;;0.20;0.20;;;;;;;4.35;100.00;92971.97;2113825;28;20420;-79
2023/12/20 03:14:35;;;;;;;0.47;0.20;;;;;;;4.43;100.00;92975.34;2117129;27;20130;-78
2023/12/20 03:15:37;;;;;;;0.15;0.15;;;;;;;4.71;100.00;92975.31;2113075;28;20045;-78
2023/12/20 03:16:37;;;;;;;0.20;0.20;;;;;;;4.63;100.00;92965.88;2097004;28;20024;-80
2023/12/20 03:17:44;;;;;;;0.10;0.10;;;;;;;4.68;100.00;92970.03;2110579;28;20027;-77
2023/12/20 03:18:45;;;;;;;0.20;0.20;;;;;;;4.64;100.00;92979.84;2122226;28;20065;-80
2023/12/20 03:19:46;;;;;;;0.10;0.10;;;;;;;4.65;100.00;92976.81;2120033;28;20366;-78
2023/12/20 03:20:49;;;;;;;0.20;0.20;;;;;;;4.52;100.00;92983.66;2109130;28;20059;-79
2023/12/20 03:21:51;;;;;;;1.17;0.10;;;;;;;4.58;100.00;92976.09;2092615;28;20029;-79
2023/12/20 03:22:51;;;;;;;0.35;0.20;;;;;;;4.43;100.00;92973.44;2096932;28;20032;-79
2023/12/20 03:23:52;;;;;;;0.20;0.20;;;;;;;4.37;100.00;92977.63;2096320;28;20028;-77
2023/12/20 03:24:53;;;;;;;0.15;0.15;;;;;;;4.34;100.00;92977.63;2109563;28;20048;-80
2023/12/20 03:25:54;;;;;;;0.43;0.10;;;;;;;4.32;100.00;92971.97;2107512;28;20385;-79
2023/12/20 03:26:55;;;;;;;0.20;0.17;;;;;;;4.50;100.00;92973.44;2121679;28;20026;-79
2023/12/20 03:27:56;;;;;;;0.10;0.10;;;;;;;4.46;100.00;92977.25;2115347;28;20024;-76
2023/12/20 03:28:57;;;;;;;0.20;0.20;;;;;;;4.42;100.00;92974.59;2106869;28;20349;-82
2023/12/20 03:29:58;;;;;;;0.10;0.10;;;;;;;4.30;100.00;92980.25;2108873;28;20024;-80
2023/12/20 03:30:59;;;;;;;0.15;0.15;;;;;;;4.26;100.00;92977.63;2118017;27;20031;-78
2023/12/20 03:32:00;;;;;;;0.20;0.20;;;;;;;4.33;100.00;92976.88;2119028;27;20031;-81
2023/12/20 03:33:01;;;;;;;0.15;0.15;;;;;;;4.12;100.00;92976.88;2122977;27;20565;-76
2023/12/20 03:34:02;;;;;;;0.10;0.10;;;;;;;4.16;100.00;92981.03;2124408;27;20103;-81
2023/12/20 03:35:03;;;;;;;0.20;0.20;;;;;;;4.26;100.00;92977.63;2119038;27;20072;-79
2023/12/20 03:36:04;;;;;;;0.32;0.20;;;;;;;4.45;100.00;92981.03;2115298;28;20110;-77
2023/12/20 03:37:05;;;;;;;0.10;0.10;;;;;;;4.35;100.00;92987.84;2115499;27;20020;-80
2023/12/20 03:38:06;;;;;;;0.10;0.10;;;;;;;4.26;100.00;92979.53;2123910;27;20018;-77
2023/12/20 03:39:07;;;;;;;0.43;0.20;;;;;;;4.17;100.00;92982.56;2123751;27;20030;-79
2023/12/20 03:40:08;;;;;;;0.10;0.10;;;;;;;4.23;100.00;92983.69;2106858;28;20110;-77
2023/12/20 03:41:10;;;;;;;0.10;0.10;;;;;;;4.30;100.00;92985.56;2099132;28;20020;-80
2023/12/20 03:42:10;;;;;;;0.20;0.20;;;;;;;4.32;100.00;92991.25;2107971;27;20075;-76
2023/12/20 03:43:11;;;;;;;0.10;0.10;;;;;;;4.30;100.00;92985.56;2124340;27;20030;-79
2023/12/20 03:44:12;;;;;;;0.10;0.10;;;;;;;4.26;100.00;92993.50;2121966;27;20023;-84
2023/12/20 03:45:13;;;;;;;0.20;0.20;;;;;;;4.10;100.00;92990.47;2116098;27;20015;-77
2023/12/20 03:46:14;;;;;;;0.20;0.20;;;;;;;4.08;100.00;92999.91;2119468;27;20031;-78
2023/12/20 03:47:15;;;;;;;0.10;0.10;;;;;;;3.86;100.00;92991.94;2115100;28;20379;-77
2023/12/20 03:48:16;;;;;;;0.20;0.20;;;;;;;4.03;100.00;92993.84;2114864;28;20023;-80
2023/12/20 03:49:17;;;;;;;0.17;0.17;;;;;;;4.02;100.00;92992.34;2128147;27;20073;-78
2023/12/20 03:50:18;;;;;;;0.20;0.20;;;;;;;4.03;100.00;93001.03;2130957;27;20026;-77
2023/12/20 03:51:19;;;;;;;0.15;0.15;;;;;;;4.23;100.00;92996.16;2121609;27;20027;-77
2023/12/20 03:52:20;;;;;;;1.10;0.20;;;;;;;4.08;100.00;93000.66;2108285;28;20404;-77
2023/12/20 03:53:21;;;;;;;0.15;0.10;;;;;;;4.00;100.00;92992.00;2116229;27;20028;-78
2023/12/20 03:54:21;;;;;;;0.20;0.20;;;;;;;3.92;100.00;93003.69;2118276;27;20024;-79
2023/12/20 03:55:23;;;;;;;0.22;0.20;;;;;;;3.90;100.00;93000.66;2120755;27;20034;-77
2023/12/20 03:56:25;;;;;;;0.20;0.20;;;;;;;4.04;100.00;93008.63;2106806;28;20023;-78
2023/12/20 03:57:26;;;;;;;1.48;0.17;;;;;;;4.07;100.00;93004.44;2109780;28;20019;-85
2023/12/20 03:58:34;;;;;;;0.20;0.20;;;;;;;3.98;100.00;93001.41;2120009;27;20148;-80
2023/12/20 03:59:36;;;;;;;0.10;0.10;;;;;;;4.12;100.00;93009.34;2121510;27;20027;-76
2023/12/20 04:00:37;;;;;;;0.20;0.20;;;;;;;4.05;100.00;93009.38;2122041;27;20029;-78
2023/12/20 04:01:38;;;;;;;0.10;0.10;;;;;;;4.01;100.00;93005.97;2108250;28;20039;-79
2023/12/20 04:02:40;;;;;;;0.10;0.10;;;;;;;3.98;100.00;93001.41;2120793;27;20022;-77
2023/12/20 04:03:41;;;;;;;0.10;0.10;;;;;;;4.08;100.00;93003.31;2119125;27;20030;-82
2023/12/20 04:04:42;;;;;;;0.10;0.10;;;;;;;3.94;100.00;93008.59;2116179;27;20098;-77
2023/12/20 04:05:43;;;;;;;1.35;0.20;;;;;;;4.00;100.00;93007.09;2114793;28;20439;-77
2023/12/20 04:06:44;;;;;;;0.10;0.10;;;;;;;3.89;100.00;92998.38;2102413;28;20052;-80
2023/12/20 04:07:45;;;;;;;0.10;0.10;;;;;;;4.05;100.00;92993.50;2104678;28;20020;-79
2023/12/20 04:08:46;;;;;;;0.20;0.20;;;;;;;3.88;100.00;93002.16;2108141;28;20035;-76
2023/12/20 04:09:48;;;;;;;0.80;0.20;;;;;;;3.94;100.00;93005.94;2115454;27;20035;-78
2023/12/20 04:10:48;;;;;;;0.28;0.28;;;;;;;3.77;100.00;93005.53;2119615;27;20026;-80
2023/12/20 04:11:49;;;;;;;0.20;0.20;;;;;;;4.01;100.00;93003.31;2125855;27;20482;-75
2023/12/20 04:12:50;;;;;;;0.20;0.20;;;;;;;3.91;100.00;93007.47;2123385;27;20023;-79
2023/12/20 04:13:51;;;;;;;0.30;0.30;;;;;;;3.70;100.00;93010.81;2122992;27;20031;-80
2023/12/20 04:14:52;;;;;;;0.10;0.10;;;;;;;3.67;100.00;93008.16;2115193;28;20085;-79
2023/12/20 04:15:53;;;;;;;0.20;0.20;;;;;;;3.74;100.00;93002.91;2117913;27;20020;-83
2023/12/20 04:16:54;;;;;;;0.20;0.20;;;;;;;3.78;100.00;93007.06;2115977;28;20028;-81
2023/12/20 04:17:55;;;;;;;0.15;0.10;;;;;;;3.86;100.00;92997.25;2124385;27;20096;-78
2023/12/20 04:18:57;;;;;;;0.10;0.10;;;;;;;3.68;100.00;93005.13;2116715;27;20019;-83
2023/12/20 04:19:58;;;;;;;0.10;0.10;;;;;;;3.72;100.00;93005.16;2106716;28;20020;-78
2023/12/20 04:20:59;;;;;;;0.10;0.10;;;;;;;3.81;100.00;93007.44;2111569;28;20024;-79
2023/12/20 04:22:02;;;;;;;0.60;0.17;;;;;;;3.81;100.00;92994.22;2111714;28;20497;-79
2023/12/20 04:23:03;;;;;;;0.10;0.10;;;;;;;3.71;100.00;93006.28;2111026;28;20058;-81
2023/12/20 04:24:04;;;;;;;0.20;0.20;;;;;;;3.72;100.00;93000.63;2115162;28;20029;-81
2023/12/20 04:25:05;;;;;;;0.17;0.17;;;;;;;3.78;100.00;93014.25;2102789;28;20045;-77
2023/12/20 04:26:06;;;;;;;0.20;0.20;;;;;;;3.65;100.00;93000.63;2106753;28;20027;-78
2023/12/20 04:27:08;;;;;;;0.17;0.17;;;;;;;3.58;100.00;93007.75;2111182;28;20436;-83
2023/12/20 04:28:09;;;;;;;0.20;0.20;;;;;;;3.79;100.00;93010.47;2117536;27;20068;-81
2023/12/20 04:29:10;;;;;;;0.10;0.10;;;;;;;3.85;100.00;93001.03;2123513;27;20027;-75
2023/12/20 04:30:11;;;;;;;0.47;0.20;;;;;;;3.72;100.00;93007.78;2118732;27;20379;-79
2023/12/20 04:31:12;;;;;;;0.10;0.10;;;;;;;3.68;100.00;93007.03;2116877;27;20464;-75
2023/12/20 04:32:13;;;;;;;0.40;0.30;;;;;;;3.60;100.00;93010.78;2119977;27;20031;-80
2023/12/20 04:33:14;;;;;;;0.20;0.20;;;;;;;3.70;100.00;93000.25;2103961;28;20036;-78
2023/12/20 04:34:15;;;;;;;0.10;0.10;;;;;;;3.46;100.00;93006.22;2115185;28;20210;-77
2023/12/20 04:35:16;;;;;;;0.20;0.20;;;;;;;3.50;100.00;93007.72;2118278;27;20023;-80
2023/12/20 04:36:17;;;;;;;0.20;0.20;;;;;;;3.51;100.00;93008.50;2106833;28;20020;-77
2023/12/20 04:37:18;;;;;;;0.17;0.17;;;;;;;3.47;100.00;93008.50;2114287;28;20745;-79
2023/12/20 04:38:19;;;;;;;0.55;0.30;;;;;;;3.48;100.00;93014.53;2123363;27;20043;-76
2023/12/20 04:39:27;;;;;;;0.20;0.20;;;;;;;3.38;100.00;93007.31;2123967;27;20033;-78
2023/12/20 04:40:28;;;;;;;0.20;0.20;;;;;;;3.39;100.00;93006.22;2124374;27;20363;-77
2023/12/20 04:41:29;;;;;;;0.25;0.20;;;;;;;3.31;100.00;93010.69;2124052;27;20027;-79
2023/12/20 04:42:30;;;;;;;0.20;0.20;;;;;;;3.51;100.00;93019.84;2131575;27;20373;-77
2023/12/20 04:43:31;;;;;;;0.35;0.20;;;;;;;3.51;100.00;93021.69;2119822;27;20023;-79
2023/12/20 04:44:32;;;;;;;0.40;0.20;;;;;;;3.58;100.00;93021.72;2115680;27;20119;-78
2023/12/20 04:45:33;;;;;;;0.10;0.10;;;;;;;3.40;100.00;93023.56;2119079;27;20027;-78
2023/12/20 04:46:34;;;;;;;0.10;0.10;;;;;;;3.36;100.00;93028.81;2117179;27;20055;-77
2023/12/20 04:47:35;;;;;;;0.20;0.20;;;;;;;3.41;100.00;93019.78;2109965;27;20020;-79
2023/12/20 04:48:36;;;;;;;0.20;0.20;;;;;;;3.36;100.00;93025.44;2115620;27;20023;-77